createdAt,value
2023-09-28T00:00:26.595Z,12.88
2023-09-28T00:01:30.960Z,12.81
2023-09-28T00:02:34.973Z,12.81
2023-09-28T00:03:39.545Z,12.88
2023-09-28T00:04:43.566Z,12.81
2023-09-28T00:05:48.136Z,12.75
2023-09-28T00:06:52.172Z,12.75
2023-09-28T00:07:56.962Z,12.69
2023-09-28T00:09:01.324Z,12.37
2023-09-28T00:10:05.595Z,12.19
2023-09-28T00:11:09.739Z,12.31
2023-09-28T00:12:13.962Z,12.44
2023-09-28T00:13:18.258Z,12.31
2023-09-28T00:14:22.638Z,12.31
2023-09-28T00:15:26.899Z,12.31
2023-09-28T00:16:30.936Z,12.37
2023-09-28T00:17:35.557Z,12.37
2023-09-28T00:18:41.316Z,12.44
2023-09-28T00:19:45.193Z,12.44
2023-09-28T00:20:49.590Z,12.50
2023-09-28T00:21:53.732Z,12.56
2023-09-28T00:22:58.166Z,12.63
2023-09-28T00:24:02.092Z,12.63
2023-09-28T00:25:06.386Z,12.50
2023-09-28T00:26:10.979Z,12.25
2023-09-28T00:27:15.242Z,12.37
2023-09-28T00:28:19.290Z,12.44
2023-09-28T00:29:23.865Z,12.50
2023-09-28T00:30:28.062Z,12.56
2023-09-28T00:31:32.457Z,12.56
2023-09-28T00:32:36.533Z,12.25
2023-09-28T00:33:41.078Z,12.19
2023-09-28T00:34:45.665Z,12.25
2023-09-28T00:35:49.941Z,12.25
2023-09-28T00:36:53.966Z,12.25
2023-09-28T00:37:58.314Z,12.31
2023-09-28T00:39:02.581Z,12.31
2023-09-28T00:40:06.883Z,12.25
2023-09-28T00:41:11.238Z,12.31
2023-09-28T00:42:15.499Z,12.37
2023-09-28T00:43:19.536Z,12.44
2023-09-28T00:44:24.366Z,12.37
2023-09-28T00:45:28.399Z,12.37
2023-09-28T00:46:32.775Z,12.44
2023-09-28T00:47:37.168Z,12.44
2023-09-28T00:48:42.345Z,12.37
2023-09-28T00:49:46.412Z,12.37
2023-09-28T00:50:52.870Z,12.37
2023-09-28T00:51:55.251Z,12.19
2023-09-28T00:52:59.570Z,12.19
2023-09-28T00:54:04.126Z,12.13
2023-09-28T00:55:07.888Z,12.13
2023-09-28T00:56:12.186Z,12.19
2023-09-28T00:57:16.733Z,12.25
2023-09-28T00:58:20.787Z,12.25
2023-09-28T00:59:25.354Z,12.31
2023-09-28T01:00:29.649Z,12.31
2023-09-28T01:01:33.697Z,12.31
2023-09-28T01:02:38.392Z,12.13
2023-09-28T01:03:42.852Z,12.25
2023-09-28T01:04:46.900Z,12.31
2023-09-28T01:05:50.945Z,12.31
2023-09-28T01:06:55.232Z,12.31
2023-09-28T01:07:59.609Z,12.37
2023-09-28T01:09:04.108Z,12.37
2023-09-28T01:10:08.143Z,12.31
2023-09-28T01:11:12.769Z,12.25
2023-09-28T01:12:17.036Z,12.25
2023-09-28T01:13:21.340Z,12.25
2023-09-28T01:14:25.357Z,12.25
2023-09-28T01:15:29.675Z,12.25
2023-09-28T01:16:34.028Z,12.19
2023-09-28T01:17:38.346Z,12.25
2023-09-28T01:18:43.837Z,12.13
2023-09-28T01:19:48.443Z,12.25
2023-09-28T01:20:52.467Z,12.25
2023-09-28T01:21:57.005Z,12.25
2023-09-28T01:23:01.111Z,12.25
2023-09-28T01:24:05.118Z,12.25
2023-09-28T01:25:09.419Z,12.31
2023-09-28T01:26:13.748Z,12.31
2023-09-28T01:27:18.310Z,12.25
2023-09-28T01:28:22.587Z,12.19
2023-09-28T01:29:26.910Z,12.19
2023-09-28T01:30:31.243Z,12.25
2023-09-28T01:31:35.529Z,12.25
2023-09-28T01:32:39.588Z,12.19
2023-09-28T01:33:43.896Z,12.19
2023-09-28T01:34:48.457Z,12.19
2023-09-28T01:35:52.488Z,12.13
2023-09-28T01:36:56.789Z,12.13
2023-09-28T01:38:01.388Z,12.19
2023-09-28T01:39:05.683Z,12.19
2023-09-28T01:40:10.244Z,12.19
2023-09-28T01:41:14.046Z,12.13
2023-09-28T01:42:18.324Z,12.06
2023-09-28T01:43:22.875Z,11.88
2023-09-28T01:44:27.193Z,11.81
2023-09-28T01:45:31.518Z,11.75
2023-09-28T01:46:35.824Z,11.75
2023-09-28T01:47:40.485Z,11.94
2023-09-28T01:48:45.951Z,12.00
2023-09-28T01:49:49.852Z,12.06
2023-09-28T01:50:54.049Z,12.13
2023-09-28T01:51:58.119Z,12.00
2023-09-28T01:53:02.457Z,11.94
2023-09-28T01:54:06.727Z,11.88
2023-09-28T01:55:11.041Z,11.94
2023-09-28T01:56:15.373Z,12.00
2023-09-28T01:57:19.904Z,12.06
2023-09-28T01:58:24.247Z,12.06
2023-09-28T01:59:28.255Z,12.13
2023-09-28T02:00:32.825Z,12.13
2023-09-28T02:01:36.883Z,12.13
2023-09-28T02:02:41.500Z,12.13
2023-09-28T02:03:45.480Z,12.19
2023-09-28T02:04:49.822Z,11.94
2023-09-28T02:05:54.646Z,11.88
2023-09-28T02:06:58.903Z,11.88
2023-09-28T02:08:02.969Z,12.00
2023-09-28T02:09:06.992Z,12.00
2023-09-28T02:10:11.372Z,12.06
2023-09-28T02:11:15.936Z,12.00
2023-09-28T02:12:20.197Z,12.06
2023-09-28T02:13:24.510Z,12.06
2023-09-28T02:14:28.542Z,12.00
2023-09-28T02:15:33.353Z,11.94
2023-09-28T02:16:37.428Z,11.88
2023-09-28T02:17:41.788Z,11.88
2023-09-28T02:18:47.271Z,11.88
2023-09-28T02:19:51.105Z,11.88
2023-09-28T02:20:55.438Z,11.94
2023-09-28T02:21:59.695Z,12.00
2023-09-28T02:23:04.331Z,12.06
2023-09-28T02:24:08.580Z,12.06
2023-09-28T02:25:13.154Z,12.13
2023-09-28T02:26:16.995Z,12.06
2023-09-28T02:27:21.269Z,12.13
2023-09-28T02:28:25.553Z,12.13
2023-09-28T02:29:29.862Z,12.13
2023-09-28T02:30:34.192Z,12.13
2023-09-28T02:31:38.513Z,12.19
2023-09-28T02:32:43.130Z,12.19
2023-09-28T02:33:47.632Z,12.19
2023-09-28T02:34:51.704Z,12.19
2023-09-28T02:35:55.715Z,12.25
2023-09-28T02:37:00.271Z,12.25
2023-09-28T02:38:04.357Z,12.19
2023-09-28T02:39:08.614Z,12.19
2023-09-28T02:40:13.178Z,12.19
2023-09-28T02:41:17.239Z,12.13
2023-09-28T02:42:22.011Z,12.13
2023-09-28T02:43:26.326Z,12.13
2023-09-28T02:44:30.372Z,12.19
2023-09-28T02:45:34.438Z,12.19
2023-09-28T02:46:38.737Z,12.25
2023-09-28T02:47:43.116Z,12.19
2023-09-28T02:48:48.840Z,12.13
2023-09-28T02:49:52.941Z,12.13
2023-09-28T02:50:57.210Z,12.06
2023-09-28T02:52:01.754Z,12.06
2023-09-28T02:53:05.603Z,12.06
2023-09-28T02:54:10.128Z,12.06
2023-09-28T02:55:14.756Z,12.06
2023-09-28T02:56:18.558Z,12.13
2023-09-28T02:57:22.789Z,12.19
2023-09-28T02:58:27.351Z,12.19
2023-09-28T02:59:31.685Z,12.25
2023-09-28T03:00:36.259Z,12.25
2023-09-28T03:01:40.635Z,12.31
2023-09-28T03:02:44.357Z,12.31
2023-09-28T03:03:48.672Z,12.31
2023-09-28T03:04:53.243Z,12.31
2023-09-28T03:05:57.261Z,12.31
2023-09-28T03:07:01.818Z,12.31
2023-09-28T03:08:05.919Z,12.25
2023-09-28T03:09:10.426Z,12.25
2023-09-28T03:10:14.755Z,12.31
2023-09-28T03:11:18.848Z,12.31
2023-09-28T03:12:23.369Z,12.31
2023-09-28T03:13:27.426Z,12.31
2023-09-28T03:14:31.726Z,12.31
2023-09-28T03:15:36.312Z,12.31
2023-09-28T03:16:40.613Z,12.31
2023-09-28T03:17:44.725Z,12.19
2023-09-28T03:18:50.724Z,12.25
2023-09-28T03:19:54.801Z,12.31
2023-09-28T03:21:35.886Z,12.25
2023-09-28T03:22:41.586Z,12.25
2023-09-28T03:23:45.560Z,12.31
2023-09-28T03:24:49.848Z,12.31
2023-09-28T03:25:53.914Z,12.25
2023-09-28T03:27:10.007Z,12.25
2023-09-28T03:28:02.756Z,12.25
2023-09-28T03:29:07.067Z,12.25
2023-09-28T03:30:11.161Z,12.31
2023-09-28T03:31:15.731Z,12.31
2023-09-28T03:32:20.234Z,12.25
2023-09-28T03:33:24.572Z,12.25
2023-09-28T03:34:28.311Z,12.25
2023-09-28T03:35:32.608Z,12.19
2023-09-28T03:36:37.161Z,12.19
2023-09-28T03:37:41.501Z,12.25
2023-09-28T03:38:45.496Z,12.25
2023-09-28T03:39:49.785Z,12.31
2023-09-28T03:40:54.118Z,12.31
2023-09-28T03:41:58.909Z,12.31
2023-09-28T03:44:07.277Z,12.31
2023-09-28T03:45:11.573Z,12.31
2023-09-28T03:46:15.926Z,12.31
2023-09-28T03:47:20.014Z,12.31
2023-09-28T03:48:24.213Z,12.25
2023-09-28T03:49:28.521Z,12.25
2023-09-28T03:53:21.175Z,12.31
2023-09-28T03:54:26.473Z,12.31
2023-09-28T03:55:30.519Z,12.31
2023-09-28T03:56:34.820Z,12.37
2023-09-28T03:57:39.110Z,12.37
2023-09-28T03:58:43.957Z,12.31
2023-09-28T03:59:47.954Z,12.31
2023-09-28T04:00:52.016Z,12.31
2023-09-28T04:01:56.359Z,12.31
2023-09-28T04:03:00.717Z,12.25
2023-09-28T04:04:05.262Z,12.25
2023-09-28T04:05:09.519Z,12.31
2023-09-28T04:06:13.796Z,12.31
2023-09-28T04:07:17.882Z,12.37
2023-09-28T04:08:22.635Z,12.37
2023-09-28T04:09:26.674Z,12.37
2023-09-28T04:10:30.977Z,12.37
2023-09-28T04:11:35.001Z,12.37
2023-09-28T04:12:39.307Z,12.31
2023-09-28T04:13:43.626Z,12.37
2023-09-28T04:14:47.904Z,12.37
2023-09-28T04:15:52.198Z,12.37
2023-09-28T04:16:56.809Z,12.25
2023-09-28T04:18:01.102Z,12.25
2023-09-28T04:19:05.137Z,12.25
2023-09-28T04:20:09.715Z,12.31
2023-09-28T04:21:13.964Z,12.37
2023-09-28T04:22:18.037Z,12.25
2023-09-28T04:23:18.350Z,12.25
2023-09-28T04:24:22.631Z,12.31
2023-09-28T04:25:26.929Z,12.19
2023-09-28T04:26:31.002Z,12.13
2023-09-28T04:27:35.646Z,12.19
2023-09-28T04:28:40.092Z,12.19
2023-09-28T04:29:44.172Z,12.19
2023-09-28T04:30:48.464Z,12.19
2023-09-28T04:31:52.595Z,12.19
2023-09-28T04:32:56.885Z,12.25
2023-09-28T04:34:01.138Z,12.25
2023-09-28T04:35:05.798Z,12.19
2023-09-28T04:36:10.891Z,12.13
2023-09-28T04:37:14.032Z,12.06
2023-09-28T04:38:18.858Z,12.06
2023-09-28T04:39:22.891Z,12.19
2023-09-28T04:40:26.949Z,12.19
2023-09-28T04:41:31.223Z,12.25
2023-09-28T04:42:35.801Z,12.19
2023-09-28T04:43:40.085Z,12.13
2023-09-28T04:44:44.396Z,12.13
2023-09-28T04:45:48.460Z,12.19
2023-09-28T04:46:53.036Z,12.19
2023-09-28T04:47:57.321Z,12.25
2023-09-28T04:49:01.317Z,12.13
2023-09-28T04:50:05.727Z,12.13
2023-09-28T04:51:10.202Z,12.13
2023-09-28T04:52:14.632Z,12.13
2023-09-28T04:53:14.619Z,12.19
2023-09-28T04:54:18.583Z,12.19
2023-09-28T04:55:23.146Z,12.19
2023-09-28T04:56:27.464Z,12.19
2023-09-28T04:57:31.755Z,12.19
2023-09-28T04:58:36.055Z,12.13
2023-09-28T04:59:40.863Z,12.13
2023-09-28T05:00:44.416Z,12.13
2023-09-28T05:01:48.759Z,12.19
2023-09-28T05:02:53.286Z,12.19
2023-09-28T05:03:57.488Z,12.13
2023-09-28T05:05:01.986Z,12.13
2023-09-28T05:06:05.938Z,12.13
2023-09-28T05:07:10.272Z,12.19
2023-09-28T05:08:14.803Z,12.13
2023-09-28T05:09:19.100Z,12.00
2023-09-28T05:10:23.406Z,11.88
2023-09-28T05:11:27.454Z,11.94
2023-09-28T05:12:31.740Z,11.94
2023-09-28T05:13:36.317Z,12.06
2023-09-28T05:14:40.347Z,12.13
2023-09-28T05:15:44.684Z,12.13
2023-09-28T05:16:48.967Z,12.13
2023-09-28T05:17:53.567Z,12.13
2023-09-28T05:18:57.801Z,12.13
2023-09-28T05:20:02.167Z,12.19
2023-09-28T05:21:06.398Z,12.13
2023-09-28T05:22:10.417Z,12.19
2023-09-28T05:23:10.853Z,12.06
2023-09-28T05:24:15.035Z,12.00
2023-09-28T05:25:19.102Z,12.06
2023-09-28T05:26:23.409Z,12.13
2023-09-28T05:27:27.716Z,12.13
2023-09-28T05:28:31.999Z,12.13
2023-09-28T05:29:36.820Z,12.13
2023-09-28T05:30:40.868Z,12.06
2023-09-28T05:31:45.178Z,12.13
2023-09-28T05:32:49.505Z,12.19
2023-09-28T05:33:53.862Z,12.13
2023-09-28T05:34:57.878Z,12.19
2023-09-28T05:36:02.375Z,12.19
2023-09-28T05:37:06.410Z,12.19
2023-09-28T05:38:10.766Z,12.19
2023-09-28T05:39:15.547Z,12.19
2023-09-28T05:40:19.312Z,12.19
2023-09-28T05:41:24.018Z,12.13
2023-09-28T05:42:27.909Z,12.13
2023-09-28T05:43:32.214Z,12.13
2023-09-28T05:44:36.808Z,12.13
2023-09-28T05:45:41.132Z,12.13
2023-09-28T05:46:45.138Z,12.13
2023-09-28T05:47:49.953Z,12.13
2023-09-28T05:48:54.018Z,12.13
2023-09-28T05:49:58.078Z,12.19
2023-09-28T05:51:02.616Z,12.19
2023-09-28T05:52:06.937Z,12.19
2023-09-28T05:53:07.079Z,12.19
2023-09-28T05:54:11.137Z,12.19
2023-09-28T05:55:15.449Z,12.19
2023-09-28T05:56:19.779Z,12.25
2023-09-28T05:57:24.317Z,12.25
2023-09-28T05:58:28.607Z,12.13
2023-09-28T05:59:33.168Z,12.06
2023-09-28T06:00:37.492Z,12.13
2023-09-28T06:01:41.362Z,12.19
2023-09-28T06:02:45.654Z,12.25
2023-09-28T06:03:50.222Z,12.25
2023-09-28T06:04:54.468Z,12.25
2023-09-28T06:05:58.495Z,12.31
2023-09-28T06:07:02.799Z,12.31
2023-09-28T06:08:09.418Z,12.31
2023-09-28T06:09:11.903Z,12.25
2023-09-28T06:10:16.004Z,12.31
2023-09-28T06:11:20.320Z,12.37
2023-09-28T06:12:24.566Z,12.44
2023-09-28T06:13:28.893Z,12.44
2023-09-28T06:14:32.968Z,12.44
2023-09-28T06:15:37.219Z,12.56
2023-09-28T06:16:41.521Z,12.75
2023-09-28T06:17:46.143Z,12.88
2023-09-28T06:18:50.648Z,13.19
2023-09-28T06:19:58.274Z,13.69
2023-09-28T06:20:59.004Z,14.19
2023-09-28T06:22:03.043Z,14.06
2023-09-28T06:23:03.444Z,13.88
2023-09-28T06:24:07.522Z,13.62
2023-09-28T06:25:11.783Z,13.38
2023-09-28T06:26:30.131Z,13.25
2023-09-28T06:27:20.377Z,13.19
2023-09-28T06:28:24.673Z,13.13
2023-09-28T06:29:29.241Z,13.13
2023-09-28T06:30:33.795Z,13.06
2023-09-28T06:31:37.916Z,13.06
2023-09-28T06:32:41.971Z,13.06
2023-09-28T06:33:46.173Z,13.06
2023-09-28T06:34:50.601Z,13.06
2023-09-28T06:35:54.788Z,13.00
2023-09-28T06:36:59.411Z,13.00
2023-09-28T06:38:03.409Z,13.00
2023-09-28T06:39:07.955Z,13.00
2023-09-28T06:40:12.247Z,13.00
2023-09-28T06:41:16.584Z,13.00
2023-09-28T06:42:36.212Z,13.00
2023-09-28T06:43:25.131Z,13.00
2023-09-28T06:44:29.534Z,13.00
2023-09-28T06:45:33.489Z,13.06
2023-09-28T06:46:37.791Z,13.06
2023-09-28T06:47:55.596Z,13.06
2023-09-28T06:48:46.943Z,13.06
2023-09-28T06:49:50.955Z,13.06
2023-09-28T06:50:54.963Z,13.06
2023-09-28T06:51:59.261Z,13.00
2023-09-28T06:52:59.552Z,13.06
2023-09-28T06:54:03.697Z,13.06
2023-09-28T06:55:08.267Z,13.13
2023-09-28T06:56:14.821Z,13.13
2023-09-28T06:57:16.583Z,13.13
2023-09-28T06:58:21.219Z,13.13
2023-09-28T06:59:25.450Z,13.13
2023-09-28T07:00:29.752Z,13.13
2023-09-28T07:01:34.080Z,13.19
2023-09-28T07:02:38.441Z,13.19
2023-09-28T07:03:42.709Z,13.13
2023-09-28T07:04:46.921Z,13.13
2023-09-28T07:05:50.944Z,13.13
2023-09-28T07:06:55.249Z,13.19
2023-09-28T07:07:59.558Z,13.25
2023-09-28T07:09:04.087Z,13.31
2023-09-28T07:10:08.625Z,13.31
2023-09-28T07:11:12.755Z,13.31
2023-09-28T07:12:16.971Z,13.38
2023-09-28T07:13:21.007Z,13.44
2023-09-28T07:14:25.367Z,13.44
2023-09-28T07:15:29.867Z,13.38
2023-09-28T07:16:33.889Z,13.38
2023-09-28T07:17:38.212Z,13.50
2023-09-28T07:18:42.978Z,13.56
2023-09-28T07:19:47.033Z,13.62
2023-09-28T07:20:51.322Z,13.69
2023-09-28T07:21:55.378Z,13.69
2023-09-28T07:22:55.643Z,13.75
2023-09-28T07:24:16.288Z,13.75
2023-09-28T07:25:04.096Z,13.81
2023-09-28T07:26:08.673Z,13.88
2023-09-28T07:27:12.956Z,13.88
2023-09-28T07:28:16.976Z,13.88
2023-09-28T07:29:21.536Z,13.88
2023-09-28T07:30:26.096Z,13.88
2023-09-28T07:31:30.389Z,13.88
2023-09-28T07:32:34.510Z,13.88
2023-09-28T07:33:38.537Z,13.94
2023-09-28T07:34:42.763Z,13.94
2023-09-28T07:35:47.146Z,13.94
2023-09-28T07:36:51.354Z,13.94
2023-09-28T07:37:55.668Z,13.88
2023-09-28T07:39:00.233Z,13.88
2023-09-28T07:40:04.523Z,13.88
2023-09-28T07:41:08.837Z,13.88
2023-09-28T07:42:15.035Z,13.94
2023-09-28T07:43:17.157Z,14.00
2023-09-28T07:44:21.735Z,14.00
2023-09-28T07:45:25.739Z,14.00
2023-09-28T07:46:30.348Z,14.00
2023-09-28T07:47:34.666Z,14.00
2023-09-28T07:48:38.916Z,13.94
2023-09-28T07:49:43.249Z,14.00
2023-09-28T07:50:47.781Z,13.94
2023-09-28T07:51:51.855Z,14.00
2023-09-28T07:52:52.520Z,14.06
2023-09-28T07:53:56.096Z,14.00
2023-09-28T07:55:00.300Z,14.00
2023-09-28T07:56:04.617Z,14.00
2023-09-28T07:57:09.184Z,14.00
2023-09-28T07:58:25.971Z,14.00
2023-09-28T07:59:17.551Z,14.00
2023-09-28T08:00:22.394Z,14.06
2023-09-28T08:01:26.415Z,14.06
2023-09-28T08:02:30.614Z,14.06
2023-09-28T08:03:34.771Z,14.13
2023-09-28T08:04:39.325Z,14.19
2023-09-28T08:05:43.372Z,14.19
2023-09-28T08:06:47.672Z,14.25
2023-09-28T08:08:04.398Z,14.31
2023-09-28T08:08:56.299Z,14.31
2023-09-28T08:10:00.849Z,14.38
2023-09-28T08:11:07.490Z,14.44
2023-09-28T08:13:14.904Z,14.75
2023-09-28T08:14:18.090Z,15.06
2023-09-28T08:15:35.503Z,15.38
2023-09-28T08:16:26.779Z,15.69
2023-09-28T08:17:31.039Z,16.00
2023-09-28T08:18:35.075Z,16.06
2023-09-28T08:19:39.847Z,15.94
2023-09-28T08:20:55.260Z,16.06
2023-09-28T08:21:47.957Z,16.19
2023-09-28T08:22:48.564Z,16.06
2023-09-28T08:23:52.624Z,16.06
2023-09-28T08:24:56.919Z,16.12
2023-09-28T08:26:00.993Z,16.06
2023-09-28T08:27:05.257Z,16.19
2023-09-28T08:28:09.801Z,16.31
2023-09-28T08:29:13.896Z,16.44
2023-09-28T08:30:18.153Z,16.37
2023-09-28T08:31:22.999Z,16.37
2023-09-28T08:32:27.014Z,16.37
2023-09-28T08:33:31.059Z,16.56
2023-09-28T08:34:39.503Z,16.81
2023-09-28T08:35:39.929Z,17.06
2023-09-28T08:36:43.972Z,17.25
2023-09-28T08:37:48.283Z,17.44
2023-09-28T08:38:52.849Z,17.56
2023-09-28T08:39:57.141Z,17.37
2023-09-28T08:41:01.817Z,17.37
2023-09-28T08:42:05.526Z,17.37
2023-09-28T08:43:09.790Z,17.31
2023-09-28T08:44:14.402Z,17.31
2023-09-28T08:45:18.375Z,17.31
2023-09-28T08:46:35.100Z,17.50
2023-09-28T08:47:27.375Z,17.69
2023-09-28T08:48:31.480Z,17.87
2023-09-28T08:49:36.014Z,17.94
2023-09-28T08:50:40.249Z,18.06
2023-09-28T08:51:44.310Z,18.19
2023-09-28T08:52:44.932Z,18.44
2023-09-28T08:53:48.424Z,18.44
2023-09-28T08:54:52.717Z,18.44
2023-09-28T08:55:57.289Z,18.69
2023-09-28T08:57:01.609Z,18.75
2023-09-28T08:58:05.590Z,18.94
2023-09-28T08:59:09.896Z,18.75
2023-09-28T09:00:14.155Z,18.81
2023-09-28T09:01:18.697Z,18.87
2023-09-28T09:02:23.304Z,18.94
2023-09-28T09:03:27.058Z,19.00
2023-09-28T09:04:31.246Z,19.12
2023-09-28T09:05:35.814Z,19.19
2023-09-28T09:06:40.185Z,19.25
2023-09-28T09:07:44.085Z,19.31
2023-09-28T09:08:48.375Z,19.44
2023-09-28T09:09:52.955Z,19.44
2023-09-28T09:10:57.301Z,19.44
2023-09-28T09:12:01.757Z,19.62
2023-09-28T09:13:05.782Z,19.62
2023-09-28T09:14:09.807Z,19.56
2023-09-28T09:15:14.400Z,19.56
2023-09-28T09:16:18.668Z,19.56
2023-09-28T09:17:22.668Z,19.50
2023-09-28T09:18:27.253Z,19.50
2023-09-28T09:19:31.183Z,19.50
2023-09-28T09:20:36.031Z,19.81
2023-09-28T09:21:39.742Z,19.75
2023-09-28T09:23:44.617Z,19.81
2023-09-28T09:24:48.637Z,19.87
2023-09-28T09:25:52.615Z,19.75
2023-09-28T09:26:57.142Z,19.94
2023-09-28T09:28:01.150Z,19.94
2023-09-28T09:29:05.727Z,20.00
2023-09-28T09:30:09.969Z,20.12
2023-09-28T09:31:14.015Z,20.19
2023-09-28T09:32:18.808Z,20.25
2023-09-28T09:33:22.868Z,20.25
2023-09-28T09:34:27.077Z,20.25
2023-09-28T09:35:31.380Z,20.50
2023-09-28T09:36:35.617Z,20.56
2023-09-28T09:37:39.915Z,20.75
2023-09-28T09:38:43.896Z,20.69
2023-09-28T09:39:48.196Z,20.62
2023-09-28T09:40:52.462Z,20.69
2023-09-28T09:41:57.001Z,20.62
2023-09-28T09:43:03.421Z,20.56
2023-09-28T09:44:05.638Z,20.88
2023-09-28T09:45:09.634Z,21.00
2023-09-28T09:46:14.115Z,21.06
2023-09-28T09:47:18.570Z,21.19
2023-09-28T09:48:22.477Z,21.12
2023-09-28T09:49:26.984Z,21.06
2023-09-28T09:50:31.524Z,21.06
2023-09-28T09:51:35.530Z,21.12
2023-09-28T09:52:41.026Z,21.19
2023-09-28T09:53:44.830Z,21.31
2023-09-28T09:54:49.057Z,21.37
2023-09-28T09:55:59.039Z,21.31
2023-09-28T09:56:57.884Z,21.44
2023-09-28T09:58:01.894Z,21.37
2023-09-28T09:59:06.229Z,21.37
2023-09-28T10:00:10.995Z,21.62
2023-09-28T10:01:15.042Z,21.62
2023-09-28T10:02:19.049Z,21.69
2023-09-28T10:03:23.353Z,21.87
2023-09-28T10:04:28.177Z,21.69
2023-09-28T10:05:32.130Z,21.69
2023-09-28T10:06:36.359Z,21.69
2023-09-28T10:08:44.927Z,21.75
2023-09-28T10:09:49.221Z,21.87
2023-09-28T10:10:53.215Z,21.81
2023-09-28T10:11:57.721Z,21.81
2023-09-28T10:13:01.993Z,21.75
2023-09-28T10:14:06.038Z,21.81
2023-09-28T10:15:10.263Z,22.00
2023-09-28T10:16:14.795Z,22.06
2023-09-28T10:17:19.137Z,22.13
2023-09-28T10:18:23.624Z,22.31
2023-09-28T10:19:27.870Z,22.19
2023-09-28T10:20:31.926Z,22.37
2023-09-28T10:21:35.898Z,22.44
2023-09-28T10:22:41.438Z,22.50
2023-09-28T10:23:45.465Z,22.31
2023-09-28T10:24:49.724Z,22.56
2023-09-28T10:25:54.007Z,22.69
2023-09-28T10:26:58.878Z,22.56
2023-09-28T10:28:02.800Z,22.56
2023-09-28T10:29:06.992Z,22.62
2023-09-28T10:30:11.316Z,22.69
2023-09-28T10:31:15.806Z,22.81
2023-09-28T10:32:19.628Z,22.94
2023-09-28T10:33:24.193Z,22.94
2023-09-28T10:34:28.644Z,23.06
2023-09-28T10:35:32.519Z,23.12
2023-09-28T10:36:36.947Z,23.12
2023-09-28T10:37:41.247Z,23.12
2023-09-28T10:38:45.523Z,23.06
2023-09-28T10:39:49.530Z,23.25
2023-09-28T10:40:54.066Z,23.50
2023-09-28T10:41:58.382Z,23.50
2023-09-28T10:43:02.354Z,23.44
2023-09-28T10:44:06.676Z,23.38
2023-09-28T10:45:10.930Z,23.44
2023-09-28T10:46:15.474Z,23.44
2023-09-28T10:47:19.842Z,23.56
2023-09-28T10:48:23.907Z,23.38
2023-09-28T10:49:28.549Z,23.50
2023-09-28T10:50:32.610Z,23.56
2023-09-28T10:51:36.585Z,23.44
2023-09-28T10:52:42.132Z,23.50
2023-09-28T10:53:46.138Z,23.44
2023-09-28T10:54:50.670Z,23.81
2023-09-28T10:55:55.168Z,23.75
2023-09-28T10:56:58.941Z,23.62
2023-09-28T10:58:03.219Z,23.56
2023-09-28T10:59:07.734Z,23.69
2023-09-28T11:00:11.980Z,23.94
2023-09-28T11:01:16.014Z,24.12
2023-09-28T11:02:20.364Z,23.94
2023-09-28T11:03:24.991Z,24.00
2023-09-28T11:04:43.457Z,24.00
2023-09-28T11:05:33.730Z,24.12
2023-09-28T11:06:37.764Z,24.00
2023-09-28T11:07:41.929Z,24.31
2023-09-28T11:08:46.217Z,24.19
2023-09-28T11:09:50.245Z,24.12
2023-09-28T11:10:54.815Z,24.06
2023-09-28T11:11:59.052Z,24.06
2023-09-28T11:13:03.053Z,24.19
2023-09-28T11:14:07.881Z,24.25
2023-09-28T11:15:11.866Z,24.12
2023-09-28T11:16:15.860Z,24.19
2023-09-28T11:17:20.192Z,24.12
2023-09-28T11:18:24.710Z,23.94
2023-09-28T11:19:28.711Z,24.06
2023-09-28T11:20:33.299Z,24.06
2023-09-28T11:21:37.511Z,24.00
2023-09-28T11:22:43.276Z,24.19
2023-09-28T11:23:47.273Z,24.25
2023-09-28T11:24:51.294Z,24.25
2023-09-28T11:25:55.322Z,24.31
2023-09-28T11:26:59.814Z,24.31
2023-09-28T11:28:03.831Z,24.31
2023-09-28T11:29:08.357Z,24.25
2023-09-28T11:30:12.607Z,24.31
2023-09-28T11:31:16.744Z,24.44
2023-09-28T11:32:21.501Z,24.37
2023-09-28T11:33:25.677Z,24.50
2023-09-28T11:34:29.442Z,24.69
2023-09-28T11:35:33.769Z,24.63
2023-09-28T11:36:38.239Z,24.56
2023-09-28T11:37:42.489Z,24.50
2023-09-28T11:38:46.494Z,24.44
2023-09-28T11:39:51.036Z,24.63
2023-09-28T11:40:55.040Z,24.75
2023-09-28T11:41:59.888Z,24.69
2023-09-28T11:43:03.851Z,24.50
2023-09-28T11:44:08.157Z,24.69
2023-09-28T11:45:12.104Z,24.69
2023-09-28T11:46:16.709Z,24.75
2023-09-28T11:47:20.671Z,24.75
2023-09-28T11:48:25.221Z,24.81
2023-09-28T11:49:29.425Z,24.87
2023-09-28T11:50:33.802Z,24.87
2023-09-28T11:51:38.255Z,24.94
2023-09-28T11:52:43.269Z,24.94
2023-09-28T11:53:47.537Z,24.94
2023-09-28T11:54:51.540Z,25.06
2023-09-28T11:55:56.058Z,24.87
2023-09-28T11:57:00.128Z,25.06
2023-09-28T11:58:04.323Z,25.06
2023-09-28T11:59:08.630Z,24.87
2023-09-28T12:00:13.398Z,24.69
2023-09-28T12:01:17.427Z,24.87
2023-09-28T12:02:22.018Z,24.87
2023-09-28T12:03:25.964Z,24.81
2023-09-28T12:04:29.969Z,24.94
2023-09-28T12:05:34.232Z,24.94
2023-09-28T12:06:38.724Z,25.06
2023-09-28T12:07:42.732Z,25.19
2023-09-28T12:08:49.692Z,25.06
2023-09-28T12:10:03.673Z,25.00
2023-09-28T12:10:55.858Z,25.31
2023-09-28T12:12:00.162Z,25.31
2023-09-28T12:13:04.053Z,25.50
2023-09-28T12:14:08.345Z,25.50
2023-09-28T12:15:12.914Z,25.50
2023-09-28T12:16:16.897Z,25.56
2023-09-28T12:17:21.203Z,25.50
2023-09-28T12:18:25.781Z,25.44
2023-09-28T12:19:30.241Z,25.50
2023-09-28T12:20:34.261Z,25.75
2023-09-28T12:21:38.460Z,25.69
2023-09-28T12:22:43.772Z,25.81
2023-09-28T12:23:47.752Z,25.75
2023-09-28T12:24:52.273Z,25.75
2023-09-28T12:25:56.550Z,25.81
2023-09-28T12:27:00.532Z,25.81
2023-09-28T12:28:05.293Z,25.75
2023-09-28T12:29:09.680Z,25.88
2023-09-28T12:30:13.333Z,25.56
2023-09-28T12:31:17.680Z,25.69
2023-09-28T12:32:22.205Z,25.75
2023-09-28T12:33:26.143Z,25.56
2023-09-28T12:34:30.647Z,25.44
2023-09-28T12:35:34.936Z,25.62
2023-09-28T12:36:39.161Z,25.44
2023-09-28T12:37:43.642Z,25.44
2023-09-28T12:38:47.661Z,25.56
2023-09-28T12:39:51.908Z,25.56
2023-09-28T12:40:55.894Z,25.56
2023-09-28T12:42:00.209Z,25.69
2023-09-28T12:43:04.679Z,25.56
2023-09-28T12:44:09.062Z,25.69
2023-09-28T12:45:13.250Z,25.69
2023-09-28T12:46:17.461Z,25.62
2023-09-28T12:47:21.793Z,25.62
2023-09-28T12:48:28.133Z,25.62
2023-09-28T12:49:29.952Z,25.69
2023-09-28T12:50:34.301Z,25.62
2023-09-28T12:51:38.459Z,25.44
2023-09-28T12:52:44.749Z,25.56
2023-09-28T12:53:48.311Z,25.56
2023-09-28T12:54:52.495Z,25.69
2023-09-28T12:55:57.021Z,25.81
2023-09-28T12:57:01.063Z,25.88
2023-09-28T12:58:04.993Z,25.94
2023-09-28T12:59:09.290Z,25.88
2023-09-28T13:00:13.785Z,25.81
2023-09-28T13:01:17.807Z,25.94
2023-09-28T13:02:22.285Z,25.94
2023-09-28T13:03:26.670Z,25.88
2023-09-28T13:04:30.656Z,26.00
2023-09-28T13:05:35.398Z,26.06
2023-09-28T13:06:39.683Z,26.12
2023-09-28T13:07:43.310Z,26.00
2023-09-28T13:08:47.864Z,26.12
2023-09-28T13:09:52.050Z,26.12
2023-09-28T13:10:56.284Z,26.00
2023-09-28T13:12:00.587Z,25.94
2023-09-28T13:13:04.824Z,26.00
2023-09-28T13:14:09.116Z,26.00
2023-09-28T13:15:13.526Z,26.00
2023-09-28T13:16:17.790Z,26.00
2023-09-28T13:17:21.472Z,25.94
2023-09-28T13:18:25.750Z,25.94
2023-09-28T13:19:31.210Z,26.00
2023-09-28T13:20:30.286Z,25.81
2023-09-28T13:21:34.546Z,25.88
2023-09-28T13:22:38.600Z,25.94
2023-09-28T13:23:39.093Z,26.00
2023-09-28T13:24:43.084Z,26.00
2023-09-28T13:25:47.393Z,26.06
2023-09-28T13:26:51.681Z,26.12
2023-09-28T13:27:56.229Z,26.12
2023-09-28T13:29:03.198Z,25.94
2023-09-28T13:30:05.062Z,26.00
2023-09-28T13:31:09.114Z,26.12
2023-09-28T13:32:13.370Z,26.12
2023-09-28T13:33:17.602Z,26.31
2023-09-28T13:34:21.534Z,26.19
2023-09-28T13:35:25.785Z,26.19
2023-09-28T13:36:30.232Z,26.06
2023-09-28T13:37:34.430Z,26.00
2023-09-28T13:38:38.921Z,26.06
2023-09-28T13:39:42.847Z,26.19
2023-09-28T13:40:54.232Z,26.06
2023-09-28T13:41:51.058Z,26.19
2023-09-28T13:42:55.279Z,26.19
2023-09-28T13:43:59.768Z,26.25
2023-09-28T13:45:04.074Z,26.06
2023-09-28T13:46:08.040Z,26.12
2023-09-28T13:47:12.301Z,26.06
2023-09-28T13:48:16.829Z,26.06
2023-09-28T13:49:21.273Z,26.12
2023-09-28T13:50:25.359Z,26.00
2023-09-28T13:51:29.568Z,26.12
2023-09-28T13:52:33.829Z,26.19
2023-09-28T13:53:33.848Z,26.19
2023-09-28T13:54:38.111Z,26.19